sensor_id;sensor_type;location;lat;lon;timestamp;P1;durP1;ratioP1;P2;durP2;ratioP2
19038;SDS011;9652;49.014;12.052;2023-06-10T00:01:44;5.13;;;4.40;;
19038;SDS011;9652;49.014;12.052;2023-06-10T00:04:12;7.60;;;5.03;;
19038;SDS011;9652;49.014;12.052;2023-06-10T00:06:40;5.00;;;4.43;;
19038;SDS011;9652;49.014;12.052;2023-06-10T00:09:07;4.73;;;4.23;;
19038;SDS011;9652;49.014;12.052;2023-06-10T00:11:37;5.37;;;4.40;;
19038;SDS011;9652;49.014;12.052;2023-06-10T00:14:04;6.83;;;4.23;;
19038;SDS011;9652;49.014;12.052;2023-06-10T00:16:31;5.67;;;4.90;;
19038;SDS011;9652;49.014;12.052;2023-06-10T00:18:58;5.13;;;4.63;;
19038;SDS011;9652;49.014;12.052;2023-06-10T00:21:26;5.27;;;4.33;;
19038;SDS011;9652;49.014;12.052;2023-06-10T00:23:53;5.07;;;4.57;;
19038;SDS011;9652;49.014;12.052;2023-06-10T00:28:50;5.13;;;4.40;;
19038;SDS011;9652;49.014;12.052;2023-06-10T00:31:17;6.03;;;4.90;;
19038;SDS011;9652;49.014;12.052;2023-06-10T00:33:44;5.17;;;4.33;;
19038;SDS011;9652;49.014;12.052;2023-06-10T00:36:11;6.23;;;4.80;;
19038;SDS011;9652;49.014;12.052;2023-06-10T00:38:38;4.80;;;4.23;;
19038;SDS011;9652;49.014;12.052;2023-06-10T00:41:08;5.60;;;4.40;;
19038;SDS011;9652;49.014;12.052;2023-06-10T00:43:35;4.90;;;3.90;;
19038;SDS011;9652;49.014;12.052;2023-06-10T00:46:03;4.63;;;4.17;;
19038;SDS011;9652;49.014;12.052;2023-06-10T00:48:31;5.03;;;4.50;;
19038;SDS011;9652;49.014;12.052;2023-06-10T00:50:58;5.20;;;4.60;;
19038;SDS011;9652;49.014;12.052;2023-06-10T00:53:26;4.90;;;4.37;;
19038;SDS011;9652;49.014;12.052;2023-06-10T00:55:55;5.50;;;4.90;;
19038;SDS011;9652;49.014;12.052;2023-06-10T00:58:22;4.70;;;4.20;;
19038;SDS011;9652;49.014;12.052;2023-06-10T01:00:51;5.30;;;4.17;;
19038;SDS011;9652;49.014;12.052;2023-06-10T01:03:20;4.90;;;4.13;;
19038;SDS011;9652;49.014;12.052;2023-06-10T01:05:47;4.10;;;3.70;;
19038;SDS011;9652;49.014;12.052;2023-06-10T01:08:25;5.07;;;3.93;;
19038;SDS011;9652;49.014;12.052;2023-06-10T01:11:04;4.30;;;3.87;;
19038;SDS011;9652;49.014;12.052;2023-06-10T01:13:40;4.23;;;3.83;;
19038;SDS011;9652;49.014;12.052;2023-06-10T01:16:09;4.87;;;4.00;;
19038;SDS011;9652;49.014;12.052;2023-06-10T01:18:39;4.33;;;3.93;;
19038;SDS011;9652;49.014;12.052;2023-06-10T01:21:07;5.50;;;3.83;;
19038;SDS011;9652;49.014;12.052;2023-06-10T01:23:35;4.33;;;3.93;;
19038;SDS011;9652;49.014;12.052;2023-06-10T01:26:03;5.03;;;4.03;;
19038;SDS011;9652;49.014;12.052;2023-06-10T01:28:38;4.53;;;4.13;;
19038;SDS011;9652;49.014;12.052;2023-06-10T01:31:21;4.60;;;3.97;;
19038;SDS011;9652;49.014;12.052;2023-06-10T01:34:09;4.03;;;3.50;;
19038;SDS011;9652;49.014;12.052;2023-06-10T01:36:43;4.80;;;3.90;;
19038;SDS011;9652;49.014;12.052;2023-06-10T01:39:16;4.60;;;4.10;;
19038;SDS011;9652;49.014;12.052;2023-06-10T01:41:48;4.10;;;3.70;;
19038;SDS011;9652;49.014;12.052;2023-06-10T01:44:18;5.23;;;4.10;;
19038;SDS011;9652;49.014;12.052;2023-06-10T01:46:46;5.10;;;4.20;;
19038;SDS011;9652;49.014;12.052;2023-06-10T01:49:13;5.50;;;4.53;;
19038;SDS011;9652;49.014;12.052;2023-06-10T01:51:42;4.43;;;3.93;;
19038;SDS011;9652;49.014;12.052;2023-06-10T01:54:09;3.80;;;3.40;;
19038;SDS011;9652;49.014;12.052;2023-06-10T01:56:38;4.83;;;4.20;;
19038;SDS011;9652;49.014;12.052;2023-06-10T01:59:05;4.00;;;3.60;;
19038;SDS011;9652;49.014;12.052;2023-06-10T02:01:33;5.07;;;4.40;;
19038;SDS011;9652;49.014;12.052;2023-06-10T02:04:01;5.37;;;4.77;;
19038;SDS011;9652;49.014;12.052;2023-06-10T02:06:31;4.33;;;3.93;;
19038;SDS011;9652;49.014;12.052;2023-06-10T02:08:58;6.03;;;4.50;;
19038;SDS011;9652;49.014;12.052;2023-06-10T02:11:28;4.40;;;4.00;;
19038;SDS011;9652;49.014;12.052;2023-06-10T02:13:57;4.60;;;4.20;;
19038;SDS011;9652;49.014;12.052;2023-06-10T02:16:24;5.30;;;4.20;;
19038;SDS011;9652;49.014;12.052;2023-06-10T02:18:51;5.33;;;4.13;;
19038;SDS011;9652;49.014;12.052;2023-06-10T02:21:19;4.87;;;4.27;;
19038;SDS011;9652;49.014;12.052;2023-06-10T02:23:46;5.90;;;4.33;;
19038;SDS011;9652;49.014;12.052;2023-06-10T02:26:13;4.53;;;4.03;;
19038;SDS011;9652;49.014;12.052;2023-06-10T02:28:42;4.90;;;4.23;;
19038;SDS011;9652;49.014;12.052;2023-06-10T02:31:10;5.13;;;3.80;;
19038;SDS011;9652;49.014;12.052;2023-06-10T02:33:37;4.53;;;4.13;;
19038;SDS011;9652;49.014;12.052;2023-06-10T02:36:05;5.37;;;4.40;;
19038;SDS011;9652;49.014;12.052;2023-06-10T02:38:32;4.97;;;4.50;;
19038;SDS011;9652;49.014;12.052;2023-06-10T02:41:00;5.47;;;4.40;;
19038;SDS011;9652;49.014;12.052;2023-06-10T02:43:27;5.53;;;4.70;;
19038;SDS011;9652;49.014;12.052;2023-06-10T02:45:54;7.27;;;4.50;;
19038;SDS011;9652;49.014;12.052;2023-06-10T02:48:24;4.43;;;4.03;;
19038;SDS011;9652;49.014;12.052;2023-06-10T02:50:51;4.67;;;4.13;;
19038;SDS011;9652;49.014;12.052;2023-06-10T02:53:33;4.97;;;3.70;;
19038;SDS011;9652;49.014;12.052;2023-06-10T02:56:05;4.40;;;3.73;;
19038;SDS011;9652;49.014;12.052;2023-06-10T02:58:33;4.60;;;3.90;;
19038;SDS011;9652;49.014;12.052;2023-06-10T03:01:00;5.07;;;4.40;;
19038;SDS011;9652;49.014;12.052;2023-06-10T03:03:36;4.50;;;4.00;;
19038;SDS011;9652;49.014;12.052;2023-06-10T03:06:09;5.63;;;4.30;;
19038;SDS011;9652;49.014;12.052;2023-06-10T03:08:38;4.80;;;3.73;;
19038;SDS011;9652;49.014;12.052;2023-06-10T03:11:09;4.37;;;3.97;;
19038;SDS011;9652;49.014;12.052;2023-06-10T03:13:38;4.50;;;3.93;;
19038;SDS011;9652;49.014;12.052;2023-06-10T03:16:17;4.37;;;3.90;;
19038;SDS011;9652;49.014;12.052;2023-06-10T03:18:46;4.23;;;3.83;;
19038;SDS011;9652;49.014;12.052;2023-06-10T03:21:13;4.77;;;4.27;;
19038;SDS011;9652;49.014;12.052;2023-06-10T03:23:41;5.63;;;4.20;;
19038;SDS011;9652;49.014;12.052;2023-06-10T03:26:08;5.47;;;4.17;;
19038;SDS011;9652;49.014;12.052;2023-06-10T03:28:38;4.50;;;4.03;;
19038;SDS011;9652;49.014;12.052;2023-06-10T03:31:07;4.43;;;4.00;;
19038;SDS011;9652;49.014;12.052;2023-06-10T03:33:34;5.30;;;4.30;;
19038;SDS011;9652;49.014;12.052;2023-06-10T03:36:04;5.43;;;4.33;;
19038;SDS011;9652;49.014;12.052;2023-06-10T03:38:33;5.00;;;4.20;;
19038;SDS011;9652;49.014;12.052;2023-06-10T03:41:00;4.87;;;4.37;;
19038;SDS011;9652;49.014;12.052;2023-06-10T03:43:27;5.60;;;4.47;;
19038;SDS011;9652;49.014;12.052;2023-06-10T03:45:56;4.53;;;3.87;;
19038;SDS011;9652;49.014;12.052;2023-06-10T03:48:23;4.93;;;3.80;;
19038;SDS011;9652;49.014;12.052;2023-06-10T03:50:52;4.40;;;4.00;;
19038;SDS011;9652;49.014;12.052;2023-06-10T03:53:22;6.20;;;4.53;;
19038;SDS011;9652;49.014;12.052;2023-06-10T03:55:50;5.03;;;4.10;;
19038;SDS011;9652;49.014;12.052;2023-06-10T03:58:20;5.27;;;4.30;;
19038;SDS011;9652;49.014;12.052;2023-06-10T04:00:47;4.57;;;4.10;;
19038;SDS011;9652;49.014;12.052;2023-06-10T04:03:14;5.37;;;4.17;;
19038;SDS011;9652;49.014;12.052;2023-06-10T04:05:45;4.63;;;4.20;;
19038;SDS011;9652;49.014;12.052;2023-06-10T04:08:12;5.93;;;4.53;;
19038;SDS011;9652;49.014;12.052;2023-06-10T04:10:41;6.53;;;4.77;;
19038;SDS011;9652;49.014;12.052;2023-06-10T04:13:08;5.47;;;4.93;;
19038;SDS011;9652;49.014;12.052;2023-06-10T04:15:40;6.90;;;4.40;;
19038;SDS011;9652;49.014;12.052;2023-06-10T04:18:11;5.20;;;4.20;;
19038;SDS011;9652;49.014;12.052;2023-06-10T04:20:38;4.53;;;4.07;;
19038;SDS011;9652;49.014;12.052;2023-06-10T04:23:05;5.17;;;4.63;;
19038;SDS011;9652;49.014;12.052;2023-06-10T04:25:33;4.60;;;4.17;;
19038;SDS011;9652;49.014;12.052;2023-06-10T04:28:01;5.00;;;4.10;;
19038;SDS011;9652;49.014;12.052;2023-06-10T04:30:30;5.00;;;4.50;;
19038;SDS011;9652;49.014;12.052;2023-06-10T04:32:59;5.23;;;4.73;;
19038;SDS011;9652;49.014;12.052;2023-06-10T04:35:26;5.20;;;4.70;;
19038;SDS011;9652;49.014;12.052;2023-06-10T04:37:55;5.53;;;4.30;;
19038;SDS011;9652;49.014;12.052;2023-06-10T04:40:23;5.43;;;4.93;;
19038;SDS011;9652;49.014;12.052;2023-06-10T04:42:50;5.53;;;4.80;;
19038;SDS011;9652;49.014;12.052;2023-06-10T04:45:19;6.03;;;4.70;;
19038;SDS011;9652;49.014;12.052;2023-06-10T04:47:46;6.13;;;5.30;;
19038;SDS011;9652;49.014;12.052;2023-06-10T04:50:13;5.67;;;5.10;;
19038;SDS011;9652;49.014;12.052;2023-06-10T04:52:40;6.83;;;5.60;;
19038;SDS011;9652;49.014;12.052;2023-06-10T04:55:08;5.30;;;4.80;;
19038;SDS011;9652;49.014;12.052;2023-06-10T04:57:36;6.27;;;4.87;;
19038;SDS011;9652;49.014;12.052;2023-06-10T05:00:03;6.23;;;5.37;;
19038;SDS011;9652;49.014;12.052;2023-06-10T05:02:33;6.27;;;4.90;;
19038;SDS011;9652;49.014;12.052;2023-06-10T05:05:00;5.43;;;4.57;;
19038;SDS011;9652;49.014;12.052;2023-06-10T05:07:28;6.27;;;5.13;;
19038;SDS011;9652;49.014;12.052;2023-06-10T05:09:55;5.47;;;4.50;;
19038;SDS011;9652;49.014;12.052;2023-06-10T05:12:22;5.00;;;4.50;;
19038;SDS011;9652;49.014;12.052;2023-06-10T05:14:49;6.73;;;5.13;;
19038;SDS011;9652;49.014;12.052;2023-06-10T05:17:16;5.87;;;4.73;;
19038;SDS011;9652;49.014;12.052;2023-06-10T05:19:45;6.33;;;4.97;;
19038;SDS011;9652;49.014;12.052;2023-06-10T05:22:12;6.77;;;4.90;;
19038;SDS011;9652;49.014;12.052;2023-06-10T05:24:41;5.40;;;4.53;;
19038;SDS011;9652;49.014;12.052;2023-06-10T05:27:09;6.43;;;4.70;;
19038;SDS011;9652;49.014;12.052;2023-06-10T05:29:37;6.40;;;5.17;;
19038;SDS011;9652;49.014;12.052;2023-06-10T05:32:05;4.67;;;4.20;;
19038;SDS011;9652;49.014;12.052;2023-06-10T05:34:33;4.87;;;4.33;;
19038;SDS011;9652;49.014;12.052;2023-06-10T05:37:02;6.20;;;5.60;;
19038;SDS011;9652;49.014;12.052;2023-06-10T05:39:30;5.27;;;4.40;;
19038;SDS011;9652;49.014;12.052;2023-06-10T05:41:57;5.53;;;4.53;;
19038;SDS011;9652;49.014;12.052;2023-06-10T05:44:26;5.57;;;4.77;;
19038;SDS011;9652;49.014;12.052;2023-06-10T05:46:53;5.60;;;4.40;;
19038;SDS011;9652;49.014;12.052;2023-06-10T05:49:20;5.50;;;5.00;;
19038;SDS011;9652;49.014;12.052;2023-06-10T05:51:47;6.00;;;4.73;;
19038;SDS011;9652;49.014;12.052;2023-06-10T05:54:15;4.70;;;4.20;;
19038;SDS011;9652;49.014;12.052;2023-06-10T05:56:42;6.03;;;3.90;;
19038;SDS011;9652;49.014;12.052;2023-06-10T05:59:09;4.10;;;3.57;;
19038;SDS011;9652;49.014;12.052;2023-06-10T06:01:36;4.60;;;4.20;;
19038;SDS011;9652;49.014;12.052;2023-06-10T06:04:04;5.43;;;4.40;;
19038;SDS011;9652;49.014;12.052;2023-06-10T06:06:31;5.20;;;4.37;;
19038;SDS011;9652;49.014;12.052;2023-06-10T06:08:58;7.07;;;4.87;;
19038;SDS011;9652;49.014;12.052;2023-06-10T06:11:26;5.23;;;4.73;;
19038;SDS011;9652;49.014;12.052;2023-06-10T06:13:53;5.43;;;4.30;;
19038;SDS011;9652;49.014;12.052;2023-06-10T06:16:21;4.60;;;4.20;;
19038;SDS011;9652;49.014;12.052;2023-06-10T06:18:48;5.50;;;4.50;;
19038;SDS011;9652;49.014;12.052;2023-06-10T06:21:15;5.03;;;4.40;;
19038;SDS011;9652;49.014;12.052;2023-06-10T06:23:42;5.70;;;4.90;;
19038;SDS011;9652;49.014;12.052;2023-06-10T06:26:09;5.73;;;4.60;;
19038;SDS011;9652;49.014;12.052;2023-06-10T06:28:37;5.00;;;4.47;;
19038;SDS011;9652;49.014;12.052;2023-06-10T06:31:05;6.43;;;4.97;;
19038;SDS011;9652;49.014;12.052;2023-06-10T06:33:33;5.20;;;4.63;;
19038;SDS011;9652;49.014;12.052;2023-06-10T06:36:00;5.47;;;4.50;;
19038;SDS011;9652;49.014;12.052;2023-06-10T06:38:27;4.57;;;4.03;;
19038;SDS011;9652;49.014;12.052;2023-06-10T06:40:54;5.23;;;4.20;;
19038;SDS011;9652;49.014;12.052;2023-06-10T06:43:21;5.00;;;4.50;;
19038;SDS011;9652;49.014;12.052;2023-06-10T06:46:16;4.80;;;4.33;;
19038;SDS011;9652;49.014;12.052;2023-06-10T06:48:43;6.03;;;4.07;;
19038;SDS011;9652;49.014;12.052;2023-06-10T06:51:10;5.23;;;4.33;;
19038;SDS011;9652;49.014;12.052;2023-06-10T06:53:37;5.00;;;4.27;;
19038;SDS011;9652;49.014;12.052;2023-06-10T06:56:09;5.30;;;4.50;;
19038;SDS011;9652;49.014;12.052;2023-06-10T06:58:36;5.07;;;4.40;;
19038;SDS011;9652;49.014;12.052;2023-06-10T07:01:03;5.30;;;4.53;;
19038;SDS011;9652;49.014;12.052;2023-06-10T07:03:32;4.93;;;4.43;;
19038;SDS011;9652;49.014;12.052;2023-06-10T07:05:59;5.00;;;4.43;;
19038;SDS011;9652;49.014;12.052;2023-06-10T07:08:26;5.13;;;4.50;;
19038;SDS011;9652;49.014;12.052;2023-06-10T07:10:54;5.17;;;4.37;;
19038;SDS011;9652;49.014;12.052;2023-06-10T07:13:21;6.10;;;3.90;;
19038;SDS011;9652;49.014;12.052;2023-06-10T07:15:48;6.97;;;4.47;;
19038;SDS011;9652;49.014;12.052;2023-06-10T07:18:15;4.53;;;3.60;;
19038;SDS011;9652;49.014;12.052;2023-06-10T07:20:43;4.93;;;4.03;;
19038;SDS011;9652;49.014;12.052;2023-06-10T07:23:11;4.90;;;3.73;;
19038;SDS011;9652;49.014;12.052;2023-06-10T07:25:38;4.63;;;4.10;;
19038;SDS011;9652;49.014;12.052;2023-06-10T07:28:06;4.13;;;3.60;;
19038;SDS011;9652;49.014;12.052;2023-06-10T07:30:33;4.50;;;3.90;;
19038;SDS011;9652;49.014;12.052;2023-06-10T07:33:00;4.57;;;3.63;;
19038;SDS011;9652;49.014;12.052;2023-06-10T07:35:28;4.00;;;3.60;;
19038;SDS011;9652;49.014;12.052;2023-06-10T07:37:56;4.83;;;4.03;;
19038;SDS011;9652;49.014;12.052;2023-06-10T07:40:23;3.73;;;3.43;;
19038;SDS011;9652;49.014;12.052;2023-06-10T07:42:50;4.83;;;3.80;;
19038;SDS011;9652;49.014;12.052;2023-06-10T07:45:18;5.30;;;4.13;;
19038;SDS011;9652;49.014;12.052;2023-06-10T07:47:45;4.33;;;3.37;;
19038;SDS011;9652;49.014;12.052;2023-06-10T07:50:12;3.40;;;3.10;;
19038;SDS011;9652;49.014;12.052;2023-06-10T07:52:39;3.40;;;3.10;;
19038;SDS011;9652;49.014;12.052;2023-06-10T07:55:08;4.03;;;3.60;;
19038;SDS011;9652;49.014;12.052;2023-06-10T07:57:35;3.80;;;3.37;;
19038;SDS011;9652;49.014;12.052;2023-06-10T08:00:04;3.80;;;3.20;;
19038;SDS011;9652;49.014;12.052;2023-06-10T08:02:39;4.20;;;3.57;;
19038;SDS011;9652;49.014;12.052;2023-06-10T08:05:06;3.73;;;3.27;;
19038;SDS011;9652;49.014;12.052;2023-06-10T08:07:34;3.83;;;3.33;;
19038;SDS011;9652;49.014;12.052;2023-06-10T08:10:01;4.60;;;3.77;;
19038;SDS011;9652;49.014;12.052;2023-06-10T08:12:30;3.60;;;3.17;;
19038;SDS011;9652;49.014;12.052;2023-06-10T08:14:57;6.63;;;3.43;;
19038;SDS011;9652;49.014;12.052;2023-06-10T08:17:25;3.53;;;3.23;;
19038;SDS011;9652;49.014;12.052;2023-06-10T08:19:52;3.43;;;3.13;;
19038;SDS011;9652;49.014;12.052;2023-06-10T08:22:19;3.93;;;3.40;;
19038;SDS011;9652;49.014;12.052;2023-06-10T08:24:46;3.37;;;3.07;;
19038;SDS011;9652;49.014;12.052;2023-06-10T08:27:13;3.73;;;3.00;;
19038;SDS011;9652;49.014;12.052;2023-06-10T08:29:42;3.40;;;2.83;;
19038;SDS011;9652;49.014;12.052;2023-06-10T08:32:09;3.30;;;3.00;;
19038;SDS011;9652;49.014;12.052;2023-06-10T08:34:36;3.43;;;3.13;;
19038;SDS011;9652;49.014;12.052;2023-06-10T08:37:03;3.13;;;2.87;;
19038;SDS011;9652;49.014;12.052;2023-06-10T08:39:31;3.60;;;3.27;;
19038;SDS011;9652;49.014;12.052;2023-06-10T08:42:00;3.30;;;2.97;;
19038;SDS011;9652;49.014;12.052;2023-06-10T08:44:37;4.30;;;3.90;;
19038;SDS011;9652;49.014;12.052;2023-06-10T08:47:08;3.87;;;3.20;;
19038;SDS011;9652;49.014;12.052;2023-06-10T08:49:43;3.23;;;2.90;;
19038;SDS011;9652;49.014;12.052;2023-06-10T08:52:13;3.47;;;3.17;;
19038;SDS011;9652;49.014;12.052;2023-06-10T08:54:43;5.30;;;2.90;;
19038;SDS011;9652;49.014;12.052;2023-06-10T08:57:15;2.87;;;2.57;;
19038;SDS011;9652;49.014;12.052;2023-06-10T08:59:45;3.23;;;2.87;;
19038;SDS011;9652;49.014;12.052;2023-06-10T09:02:14;3.03;;;2.73;;
19038;SDS011;9652;49.014;12.052;2023-06-10T09:04:45;3.30;;;3.00;;
19038;SDS011;9652;49.014;12.052;2023-06-10T09:07:13;3.78;;;2.92;;
19038;SDS011;9652;49.014;12.052;2023-06-10T09:09:42;3.33;;;3.03;;
19038;SDS011;9652;49.014;12.052;2023-06-10T09:12:10;3.22;;;2.83;;
19038;SDS011;9652;49.014;12.052;2023-06-10T09:14:39;3.28;;;2.97;;
19038;SDS011;9652;49.014;12.052;2023-06-10T09:17:07;3.55;;;3.25;;
19038;SDS011;9652;49.014;12.052;2023-06-10T09:19:36;5.13;;;3.05;;
19038;SDS011;9652;49.014;12.052;2023-06-10T09:22:05;3.53;;;2.90;;
19038;SDS011;9652;49.014;12.052;2023-06-10T09:24:32;3.53;;;3.22;;
19038;SDS011;9652;49.014;12.052;2023-06-10T09:27:02;3.35;;;3.05;;
19038;SDS011;9652;49.014;12.052;2023-06-10T09:29:31;4.43;;;3.17;;
19038;SDS011;9652;49.014;12.052;2023-06-10T09:32:00;3.20;;;2.88;;
19038;SDS011;9652;49.014;12.052;2023-06-10T09:34:28;5.15;;;2.90;;
19038;SDS011;9652;49.014;12.052;2023-06-10T09:36:56;2.90;;;2.45;;
19038;SDS011;9652;49.014;12.052;2023-06-10T09:39:24;2.53;;;2.33;;
19038;SDS011;9652;49.014;12.052;2023-06-10T09:41:51;2.85;;;2.55;;
19038;SDS011;9652;49.014;12.052;2023-06-10T09:44:18;2.90;;;2.60;;
19038;SDS011;9652;49.014;12.052;2023-06-10T09:46:49;3.63;;;2.75;;
19038;SDS011;9652;49.014;12.052;2023-06-10T09:49:16;3.15;;;2.65;;
19038;SDS011;9652;49.014;12.052;2023-06-10T09:51:48;2.72;;;2.53;;
19038;SDS011;9652;49.014;12.052;2023-06-10T09:54:19;3.33;;;3.03;;
19038;SDS011;9652;49.014;12.052;2023-06-10T09:56:47;6.43;;;2.63;;
19038;SDS011;9652;49.014;12.052;2023-06-10T09:59:15;3.15;;;2.85;;
19038;SDS011;9652;49.014;12.052;2023-06-10T10:01:42;2.80;;;2.60;;
19038;SDS011;9652;49.014;12.052;2023-06-10T10:04:09;2.67;;;2.45;;
19038;SDS011;9652;49.014;12.052;2023-06-10T10:06:36;2.90;;;2.65;;
19038;SDS011;9652;49.014;12.052;2023-06-10T10:09:04;3.35;;;3.05;;
19038;SDS011;9652;49.014;12.052;2023-06-10T10:11:33;3.45;;;3.05;;
19038;SDS011;9652;49.014;12.052;2023-06-10T10:14:02;3.40;;;2.88;;
19038;SDS011;9652;49.014;12.052;2023-06-10T10:16:33;3.17;;;2.88;;
19038;SDS011;9652;49.014;12.052;2023-06-10T10:19:06;3.30;;;3.00;;
19038;SDS011;9652;49.014;12.052;2023-06-10T10:21:40;3.28;;;2.97;;
19038;SDS011;9652;49.014;12.052;2023-06-10T10:24:20;3.13;;;2.78;;
19038;SDS011;9652;49.014;12.052;2023-06-10T10:26:53;3.53;;;3.08;;
19038;SDS011;9652;49.014;12.052;2023-06-10T10:29:33;3.58;;;2.88;;
19038;SDS011;9652;49.014;12.052;2023-06-10T10:32:06;3.15;;;2.85;;
19038;SDS011;9652;49.014;12.052;2023-06-10T10:34:37;3.10;;;2.80;;
19038;SDS011;9652;49.014;12.052;2023-06-10T10:37:14;3.20;;;2.90;;
19038;SDS011;9652;49.014;12.052;2023-06-10T10:39:41;4.20;;;3.38;;
19038;SDS011;9652;49.014;12.052;2023-06-10T10:42:10;3.30;;;3.00;;
19038;SDS011;9652;49.014;12.052;2023-06-10T10:44:38;3.50;;;3.20;;
19038;SDS011;9652;49.014;12.052;2023-06-10T10:47:07;3.50;;;3.20;;
19038;SDS011;9652;49.014;12.052;2023-06-10T10:49:37;3.35;;;3.05;;
19038;SDS011;9652;49.014;12.052;2023-06-10T10:52:09;3.85;;;2.90;;
19038;SDS011;9652;49.014;12.052;2023-06-10T10:54:41;3.30;;;3.00;;
19038;SDS011;9652;49.014;12.052;2023-06-10T10:57:16;3.38;;;3.08;;
19038;SDS011;9652;49.014;12.052;2023-06-10T10:59:46;2.60;;;2.40;;
19038;SDS011;9652;49.014;12.052;2023-06-10T11:02:39;3.20;;;2.83;;
19038;SDS011;9652;49.014;12.052;2023-06-10T11:05:09;3.17;;;2.90;;
19038;SDS011;9652;49.014;12.052;2023-06-10T11:07:40;3.28;;;2.97;;
19038;SDS011;9652;49.014;12.052;2023-06-10T11:10:28;3.78;;;2.97;;
19038;SDS011;9652;49.014;12.052;2023-06-10T11:12:58;3.25;;;2.95;;
19038;SDS011;9652;49.014;12.052;2023-06-10T11:15:26;3.20;;;2.90;;
19038;SDS011;9652;49.014;12.052;2023-06-10T11:18:07;3.45;;;2.97;;
19038;SDS011;9652;49.014;12.052;2023-06-10T11:20:53;3.15;;;2.80;;
19038;SDS011;9652;49.014;12.052;2023-06-10T11:23:29;3.42;;;3.13;;
19038;SDS011;9652;49.014;12.052;2023-06-10T11:26:16;3.20;;;2.90;;
19038;SDS011;9652;49.014;12.052;2023-06-10T11:31:38;3.45;;;2.83;;
19038;SDS011;9652;49.014;12.052;2023-06-10T11:34:08;3.55;;;3.25;;
19038;SDS011;9652;49.014;12.052;2023-06-10T11:36:37;3.65;;;3.35;;
19038;SDS011;9652;49.014;12.052;2023-06-10T11:39:07;4.00;;;3.58;;
19038;SDS011;9652;49.014;12.052;2023-06-10T11:41:37;4.13;;;3.33;;
19038;SDS011;9652;49.014;12.052;2023-06-10T11:44:08;3.40;;;3.10;;
19038;SDS011;9652;49.014;12.052;2023-06-10T11:46:37;3.67;;;3.38;;
19038;SDS011;9652;49.014;12.052;2023-06-10T11:49:07;4.43;;;3.78;;
19038;SDS011;9652;49.014;12.052;2023-06-10T11:51:35;4.30;;;3.72;;
19038;SDS011;9652;49.014;12.052;2023-06-10T11:54:05;4.13;;;3.58;;
19038;SDS011;9652;49.014;12.052;2023-06-10T11:56:35;3.78;;;3.38;;
19038;SDS011;9652;49.014;12.052;2023-06-10T11:59:03;4.78;;;4.03;;
19038;SDS011;9652;49.014;12.052;2023-06-10T12:01:34;4.63;;;3.72;;
19038;SDS011;9652;49.014;12.052;2023-06-10T12:04:03;4.60;;;3.30;;
19038;SDS011;9652;49.014;12.052;2023-06-10T12:06:42;3.67;;;3.35;;
19038;SDS011;9652;49.014;12.052;2023-06-10T12:09:15;3.67;;;3.38;;
19038;SDS011;9652;49.014;12.052;2023-06-10T12:11:48;3.85;;;3.45;;
19038;SDS011;9652;49.014;12.052;2023-06-10T12:17:23;3.90;;;3.60;;
19038;SDS011;9652;49.014;12.052;2023-06-10T12:20:04;4.00;;;3.35;;
19038;SDS011;9652;49.014;12.052;2023-06-10T12:22:36;3.55;;;3.22;;
19038;SDS011;9652;49.014;12.052;2023-06-10T12:25:05;3.55;;;3.25;;
19038;SDS011;9652;49.014;12.052;2023-06-10T12:27:34;3.55;;;3.25;;
19038;SDS011;9652;49.014;12.052;2023-06-10T12:30:02;3.92;;;3.30;;
19038;SDS011;9652;49.014;12.052;2023-06-10T12:32:36;5.28;;;3.20;;
19038;SDS011;9652;49.014;12.052;2023-06-10T12:35:06;3.58;;;3.00;;
19038;SDS011;9652;49.014;12.052;2023-06-10T12:37:35;3.13;;;2.88;;
19038;SDS011;9652;49.014;12.052;2023-06-10T12:40:03;2.60;;;2.40;;
19038;SDS011;9652;49.014;12.052;2023-06-10T12:42:32;4.03;;;2.72;;
19038;SDS011;9652;49.014;12.052;2023-06-10T12:45:00;6.90;;;3.10;;
19038;SDS011;9652;49.014;12.052;2023-06-10T12:47:30;3.05;;;2.55;;
19038;SDS011;9652;49.014;12.052;2023-06-10T12:50:01;3.30;;;3.00;;
19038;SDS011;9652;49.014;12.052;2023-06-10T12:52:30;3.38;;;3.08;;
19038;SDS011;9652;49.014;12.052;2023-06-10T12:54:57;2.90;;;2.70;;
19038;SDS011;9652;49.014;12.052;2023-06-10T12:57:25;2.80;;;2.60;;
19038;SDS011;9652;49.014;12.052;2023-06-10T12:59:52;3.30;;;3.00;;
19038;SDS011;9652;49.014;12.052;2023-06-10T13:02:22;3.28;;;2.97;;
19038;SDS011;9652;49.014;12.052;2023-06-10T13:04:49;2.88;;;2.67;;
19038;SDS011;9652;49.014;12.052;2023-06-10T13:07:18;3.40;;;3.10;;
19038;SDS011;9652;49.014;12.052;2023-06-10T13:09:47;3.35;;;3.05;;
19038;SDS011;9652;49.014;12.052;2023-06-10T13:12:14;3.00;;;2.70;;
19038;SDS011;9652;49.014;12.052;2023-06-10T13:14:42;3.33;;;2.65;;
19038;SDS011;9652;49.014;12.052;2023-06-10T13:17:10;2.80;;;2.55;;
19038;SDS011;9652;49.014;12.052;2023-06-10T13:19:37;3.15;;;2.80;;
19038;SDS011;9652;49.014;12.052;2023-06-10T13:22:04;6.03;;;2.55;;
19038;SDS011;9652;49.014;12.052;2023-06-10T13:24:32;2.50;;;2.08;;
19038;SDS011;9652;49.014;12.052;2023-06-10T13:26:59;2.47;;;2.28;;
19038;SDS011;9652;49.014;12.052;2023-06-10T13:29:26;2.58;;;2.38;;
19038;SDS011;9652;49.014;12.052;2023-06-10T13:31:53;2.55;;;2.35;;
19038;SDS011;9652;49.014;12.052;2023-06-10T13:34:20;2.47;;;2.28;;
19038;SDS011;9652;49.014;12.052;2023-06-10T13:36:47;2.47;;;2.28;;
19038;SDS011;9652;49.014;12.052;2023-06-10T13:39:14;2.97;;;2.47;;
19038;SDS011;9652;49.014;12.052;2023-06-10T13:41:43;2.40;;;2.20;;
19038;SDS011;9652;49.014;12.052;2023-06-10T13:44:10;3.40;;;2.40;;
19038;SDS011;9652;49.014;12.052;2023-06-10T13:46:37;2.88;;;2.55;;
19038;SDS011;9652;49.014;12.052;2023-06-10T13:49:04;2.60;;;2.40;;
19038;SDS011;9652;49.014;12.052;2023-06-10T13:51:31;2.72;;;2.33;;
19038;SDS011;9652;49.014;12.052;2023-06-10T13:53:58;3.00;;;2.20;;
19038;SDS011;9652;49.014;12.052;2023-06-10T13:56:25;7.07;;;2.50;;
19038;SDS011;9652;49.014;12.052;2023-06-10T13:58:53;3.47;;;2.28;;
19038;SDS011;9652;49.014;12.052;2023-06-10T14:01:20;3.47;;;2.38;;
19038;SDS011;9652;49.014;12.052;2023-06-10T14:03:47;4.03;;;2.50;;
19038;SDS011;9652;49.014;12.052;2023-06-10T14:06:14;3.73;;;2.63;;
19038;SDS011;9652;49.014;12.052;2023-06-10T14:08:43;2.73;;;2.40;;
19038;SDS011;9652;49.014;12.052;2023-06-10T14:11:10;2.57;;;2.33;;
19038;SDS011;9652;49.014;12.052;2023-06-10T14:13:37;3.30;;;2.33;;
19038;SDS011;9652;49.014;12.052;2023-06-10T14:16:06;2.70;;;2.33;;
19038;SDS011;9652;49.014;12.052;2023-06-10T14:18:33;2.90;;;2.43;;
19038;SDS011;9652;49.014;12.052;2023-06-10T14:21:00;3.03;;;2.73;;
19038;SDS011;9652;49.014;12.052;2023-06-10T14:23:27;3.17;;;2.50;;
19038;SDS011;9652;49.014;12.052;2023-06-10T14:25:54;3.27;;;2.80;;
19038;SDS011;9652;49.014;12.052;2023-06-10T14:28:21;2.90;;;2.70;;
19038;SDS011;9652;49.014;12.052;2023-06-10T14:30:49;4.63;;;2.47;;
19038;SDS011;9652;49.014;12.052;2023-06-10T14:33:17;3.30;;;3.00;;
19038;SDS011;9652;49.014;12.052;2023-06-10T14:35:44;3.10;;;2.80;;
19038;SDS011;9652;49.014;12.052;2023-06-10T14:38:11;3.20;;;2.90;;
19038;SDS011;9652;49.014;12.052;2023-06-10T14:40:38;3.60;;;3.30;;
19038;SDS011;9652;49.014;12.052;2023-06-10T14:43:05;5.10;;;3.53;;
19038;SDS011;9652;49.014;12.052;2023-06-10T14:45:35;4.07;;;3.63;;
19038;SDS011;9652;49.014;12.052;2023-06-10T14:48:02;3.57;;;3.07;;
19038;SDS011;9652;49.014;12.052;2023-06-10T14:50:31;3.90;;;3.40;;
19038;SDS011;9652;49.014;12.052;2023-06-10T14:52:58;4.40;;;3.40;;
19038;SDS011;9652;49.014;12.052;2023-06-10T14:55:25;3.33;;;3.03;;
19038;SDS011;9652;49.014;12.052;2023-06-10T14:57:52;3.57;;;3.27;;
19038;SDS011;9652;49.014;12.052;2023-06-10T15:00:19;3.33;;;3.03;;
19038;SDS011;9652;49.014;12.052;2023-06-10T15:02:48;4.37;;;3.63;;
19038;SDS011;9652;49.014;12.052;2023-06-10T15:05:15;4.40;;;4.00;;
19038;SDS011;9652;49.014;12.052;2023-06-10T15:07:45;4.50;;;3.60;;